sensor_id;sensor_type;location;lat;lon;timestamp;pressure;altitude;pressure_sealevel;temperature;humidity
71642;BME280;60657;50.122;14.468;2023-05-19T00:03:08;99048.95337803199;;;13.098344396124212;57.02929732204166
71642;BME280;60657;50.122;14.468;2023-05-19T00:06:24;99045.61351666373;;;13.047608148317693;56.97589074540322
71642;BME280;60657;50.122;14.468;2023-05-19T00:09:41;99042.28311048997;;;13.117036697947661;56.840466926070036
71642;BME280;60657;50.122;14.468;2023-05-19T00:12:56;99048.11810051554;;;13.047608148317693;56.96253910124361
71642;BME280;60657;50.122;14.468;2023-05-19T00:16:11;99045.61765253004;;;13.063630121309224;56.9644464789807
71642;BME280;60657;50.122;14.468;2023-05-19T00:19:26;99038.10676886249;;;13.002212558175025;57.017853055619135
71642;BME280;60657;50.122;14.468;2023-05-19T00:22:41;99030.61003752724;;;13.068970778973068;57.09605554283971
71642;BME280;60657;50.122;14.468;2023-05-19T00:26:00;99033.93942831787;;;12.994201571679255;57.26581216144045
71642;BME280;60657;50.122;14.468;2023-05-19T00:29:16;99024.76885280645;;;12.978179598687724;57.55573357747768
71642;BME280;60657;50.122;14.468;2023-05-19T00:32:30;99023.09341857285;;;12.855344472419318;58.12985427634089
71642;BME280;60657;50.122;14.468;2023-05-19T00:35:45;99023.08257650667;;;12.801937895780881;58.40070191500725
71642;BME280;60657;50.122;14.468;2023-05-19T00:38:59;99021.41467905263;;;12.815289539940487;58.49034866865034
71642;BME280;60657;50.122;14.468;2023-05-19T00:42:13;99021.41671960043;;;12.815289539940487;58.42740520332647
71642;BME280;60657;50.122;14.468;2023-05-19T00:45:28;99020.58662671002;;;12.791256580453194;58.747844663157096
71642;BME280;60657;50.122;14.468;2023-05-19T00:48:43;99013.0754142205;;;12.724498359655144;59.17700465400168
71642;BME280;60657;50.122;14.468;2023-05-19T00:51:59;99007.23814948792;;;12.665751125352863;59.3067063401236
71642;BME280;60657;50.122;14.468;2023-05-19T00:55:15;99007.23814948792;;;12.67643244068055;59.44975967040513
71642;BME280;60657;50.122;14.468;2023-05-19T00:58:30;99009.72767877317;;;12.673762111848632;59.58136873426413
71642;BME280;60657;50.122;14.468;2023-05-19T01:01:46;99009.72499401386;;;12.681773098344394;59.46311131456474
71642;BME280;60657;50.122;14.468;2023-05-19T01:05:02;99017.22521212578;;;12.705806057831694;59.9094377050431
71642;BME280;60657;50.122;14.468;2023-05-19T01:08:17;99014.72323015076;;;12.601663233386738;59.7778286411841
71642;BME280;60657;50.122;14.468;2023-05-19T01:11:32;99016.37921915234;;;12.609674219882507;60.193636987869084
71642;BME280;60657;50.122;14.468;2023-05-19T01:14:46;99006.39458864488;;;12.6577401388571;60.08300907911803
71642;BME280;60657;50.122;14.468;2023-05-19T01:18:04;99003.8786878417;;;12.59899290455482;60.161211566338594
71642;BME280;60657;50.122;14.468;2023-05-19T01:22:01;99014.69771781076;;;12.508201724269476;60.15548943312734
71642;BME280;60657;50.122;14.468;2023-05-19T01:25:50;99014.68673207237;;;12.510872053101394;60.62661173418783
71642;BME280;60657;50.122;14.468;2023-05-19T01:29:27;99015.52821418685;;;12.540245670252538;60.70099946593423
71642;BME280;60657;50.122;14.468;2023-05-19T01:32:56;99015.52082261589;;;12.524223697261007;61.01190203707942
71642;BME280;60657;50.122;14.468;2023-05-19T01:36:14;99008.86293311158;;;12.481498435950257;61.14732585641261
71642;BME280;60657;50.122;14.468;2023-05-19T01:39:30;99014.67497280275;;;12.422751201647976;61.189288166628515
71642;BME280;60657;50.122;14.468;2023-05-19T01:42:46;99006.33399900794;;;12.406729228656445;61.395284962233916
71642;BME280;60657;50.122;14.468;2023-05-19T01:46:03;99005.48708941758;;;12.339971007858395;61.73479819943542
71642;BME280;60657;50.122;14.468;2023-05-19T01:49:18;99015.46925511523;;;12.323949034866864;61.96177615014878
71642;BME280;60657;50.122;14.468;2023-05-19T01:52:33;99011.3465368684;;;12.406729228656445;61.63179980163271
71642;BME280;60657;50.122;14.468;2023-05-19T01:55:48;99008.827855571;;;12.382696269169145;61.4429694056611
71642;BME280;60657;50.122;14.468;2023-05-19T01:59:08;99002.95165978574;;;12.249179827573052;61.96368352788586
71642;BME280;60657;50.122;14.468;2023-05-19T02:02:38;99001.3210333044;;;12.297245746547645;61.85877775234607
71642;BME280;60657;50.122;14.468;2023-05-19T02:06:11;99009.63476908198;;;12.278553444724196;61.84161135271229
71642;BME280;60657;50.122;14.468;2023-05-19T02:09:38;99015.49224501873;;;12.36133363851377;61.83398184176394
71642;BME280;60657;50.122;14.468;2023-05-19T02:13:01;99007.9360471775;;;12.19844357976654;62.09719996948196
71642;BME280;60657;50.122;14.468;2023-05-19T02:16:19;99012.90240709357;;;12.121004043640802;62.051422903791874
71642;BME280;60657;50.122;14.468;2023-05-19T02:19:41;99006.26762796083;;;12.107652399481196;62.29938200961318
71642;BME280;60657;50.122;14.468;2023-05-19T02:22:56;99015.38740697854;;;12.075608453498134;62.68467231250477
71642;BME280;60657;50.122;14.468;2023-05-19T02:26:11;99010.42242847299;;;12.080949111161978;62.32417792019531
71642;BME280;60657;50.122;14.468;2023-05-19T02:29:25;99013.73670812698;;;12.102311741817353;62.46150911726558
71642;BME280;60657;50.122;14.468;2023-05-19T02:32:39;99004.53507400594;;;11.992828259708553;62.85252155336843
71642;BME280;60657;50.122;14.468;2023-05-19T02:35:54;98989.52473886826;;;11.878004119935909;63.11955443656062
71642;BME280;60657;50.122;14.468;2023-05-19T02:39:09;99002.87276422663;;;11.968795300221252;63.06996261539635
71642;BME280;60657;50.122;14.468;2023-05-19T02:42:24;98995.36438218651;;;11.926070038910503;63.310292210269324
71642;BME280;60657;50.122;14.468;2023-05-19T02:45:38;98984.55057825912;;;11.93675135423819;63.33318074311437
71642;BME280;60657;50.122;14.468;2023-05-19T02:48:53;98993.64944639146;;;11.803234912642097;63.68795300221255
71642;BME280;60657;50.122;14.468;2023-05-19T02:52:08;98992.00797468705;;;11.827267872129397;63.83291371023117
71642;BME280;60657;50.122;14.468;2023-05-19T02:55:22;98983.67879220759;;;11.805905241474022;63.8443579766537
71642;BME280;60657;50.122;14.468;2023-05-19T02:58:37;98978.65349598484;;;11.712443732356753;64.10376134889754
71642;BME280;60657;50.122;14.468;2023-05-19T03:01:53;98973.67520244322;;;11.73113603418021;64.31166552224002
71642;BME280;60657;50.122;14.468;2023-05-19T03:05:10;98977.77664854548;;;11.613641565575648;64.50431067368582
71642;BME280;60657;50.122;14.468;2023-05-19T03:08:24;98971.07226510423;;;11.538872358281836;64.70077058060578
71642;BME280;60657;50.122;14.468;2023-05-19T03:11:39;98977.6821205818;;;11.49347676813916;65.29396505683985
71642;BME280;60657;50.122;14.468;2023-05-19T03:14:53;98974.31028933731;;;11.400015259021899;65.63729304951552
71642;BME280;60657;50.122;14.468;2023-05-19T03:18:08;98977.66516772826;;;11.43472953383688;65.77080949111162
71642;BME280;60657;50.122;14.468;2023-05-19T03:21:23;98977.61225609863;;;11.335927367055774;65.95582513160906
71642;BME280;60657;50.122;14.468;2023-05-19T03:24:37;98972.60568833296;;;11.317235065232317;66.50705729762723
71642;BME280;60657;50.122;14.468;2023-05-19T03:27:52;98975.0431459612;;;11.258487830930036;66.3907072556649
71642;BME280;60657;50.122;14.468;2023-05-19T03:31:06;98980.0306933547;;;11.189059281300068;66.50705729762723
71642;BME280;60657;50.122;14.468;2023-05-19T03:34:21;98975.00366020572;;;11.16235599298085;67.04303044174868
71642;BME280;60657;50.122;14.468;2023-05-19T03:37:36;98977.45611116818;;;11.132982375829712;66.85420004577706
71642;BME280;60657;50.122;14.468;2023-05-19T03:40:50;98987.31830731459;;;10.996795605401694;67.47409781033036
71642;BME280;60657;50.122;14.468;2023-05-19T03:44:05;98984.91462768971;;;11.098268101014725;67.16700999465934
71642;BME280;60657;50.122;14.468;2023-05-19T03:47:19;98986.68740022251;;;11.17837796597238;67.12314030670635
71642;BME280;60657;50.122;14.468;2023-05-19T03:50:34;98990.8201706217;;;11.22110322728313;66.7607385366598
71642;BME280;60657;50.122;14.468;2023-05-19T03:53:49;98995.0333805834;;;11.290531776913099;66.58335240711071
71642;BME280;60657;50.122;14.468;2023-05-19T03:57:04;98982.52447026581;;;11.250476844434274;66.62340733958953
71642;BME280;60657;50.122;14.468;2023-05-19T04:00:19;98982.60989510434;;;11.378652628366524;66.6710917830167
71642;BME280;60657;50.122;14.468;2023-05-19T04:03:33;98985.14017934231;;;11.43472953383688;66.50514991989013
71642;BME280;60657;50.122;14.468;2023-05-19T04:06:48;98985.90138430976;;;11.37331197070268;66.23620965896086
71642;BME280;60657;50.122;14.468;2023-05-19T04:10:03;98982.61895922737;;;11.442740520332649;66.37544823376821
71642;BME280;60657;50.122;14.468;2023-05-19T04:13:19;98974.2468112582;;;11.362630655374993;66.4212252994583
71642;BME280;60657;50.122;14.468;2023-05-19T04:16:34;98977.69046866434;;;11.509498741130692;66.36781872281986
71642;BME280;60657;50.122;14.468;2023-05-19T04:19:49;98980.98551611495;;;11.45876249332418;66.68444342717632
71642;BME280;60657;50.122;14.468;2023-05-19T04:23:04;98975.97907348444;;;11.381322957198442;66.93430991073473
71642;BME280;60657;50.122;14.468;2023-05-19T04:26:18;98982.61895922737;;;11.394674601358055;67.20134279392691
71642;BME280;60657;50.122;14.468;2023-05-19T04:29:33;98982.58218963118;;;11.317235065232317;67.41496910048066
71642;BME280;60657;50.122;14.468;2023-05-19T04:32:48;98985.18322669315;;;11.610971236743723;66.98771648737316
71642;BME280;60657;50.122;14.468;2023-05-19T04:36:02;98985.23205944168;;;11.643015182726785;66.96101319905394
71642;BME280;60657;50.122;14.468;2023-05-19T04:39:17;98985.23989862487;;;11.696421759365222;66.93049515526054
71642;BME280;60657;50.122;14.468;2023-05-19T04:42:32;98988.64369224598;;;11.848630502784772;66.39452201113909
71642;BME280;60657;50.122;14.468;2023-05-19T04:45:47;98984.4793251718;;;11.872663462272065;66.50705729762723
71642;BME280;60657;50.122;14.468;2023-05-19T04:49:06;98992.89817834138;;;12.05424582284276;66.06454566262303
71642;BME280;60657;50.122;14.468;2023-05-19T04:52:20;98988.78674952635;;;12.139696345464259;65.35690852216374
71642;BME280;60657;50.122;14.468;2023-05-19T04:55:36;98997.9803194743;;;12.25719081406882;64.99450675211719
71642;BME280;60657;50.122;14.468;2023-05-19T04:58:50;98993.86836240487;;;12.444113832303351;64.71030746929122
71642;BME280;60657;50.122;14.468;2023-05-19T05:02:05;98993.87156434283;;;12.430762188143738;64.51956969558252
71642;BME280;60657;50.122;14.468;2023-05-19T05:05:20;98993.00566833495;;;12.414740215152207;64.39177538719768
71642;BME280;60657;50.122;14.468;2023-05-19T05:08:34;98998.02090638867;;;12.486839093614101;64.29259174486916
71642;BME280;60657;50.122;14.468;2023-05-19T05:11:49;98988.07668436441;;;12.687113756008237;63.87869077592126
71642;BME280;60657;50.122;14.468;2023-05-19T05:15:05;98990.55360041087;;;12.57495994506752;63.91111619745175
71642;BME280;60657;50.122;14.468;2023-05-19T05:18:20;98987.25203260253;;;12.895399404898143;63.85770962081331
71642;BME280;60657;50.122;14.468;2023-05-19T05:21:36;98979.7590278069;;;13.020904859998474;63.478141451132984
71642;BME280;60657;50.122;14.468;2023-05-19T05:24:51;98975.59111058383;;;13.109025711451899;62.9154650186923
71642;BME280;60657;50.122;14.468;2023-05-19T05:28:06;98971.41181235516;;;13.261234454871442;62.05333028152896
71642;BME280;60657;50.122;14.468;2023-05-19T05:31:20;98971.39918404352;;;13.39742122529946;61.6623178454261
71642;BME280;60657;50.122;14.468;2023-05-19T05:34:35;98976.41711479076;;;13.218509193560692;61.679484245059896
71642;BME280;60657;50.122;14.468;2023-05-19T05:37:50;98971.4086356468;;;13.24521248187991;62.10101472495613
71642;BME280;60657;50.122;14.468;2023-05-19T05:41:05;98963.91508260896;;;13.24521248187991;61.938887617303735
71642;BME280;60657;50.122;14.468;2023-05-19T05:44:19;98968.06836616372;;;13.352025635156785;61.977035172045476
71642;BME280;60657;50.122;14.468;2023-05-19T05:47:34;98972.22325270383;;;13.477531090257116;61.54406042572671
71642;BME280;60657;50.122;14.468;2023-05-19T05:50:49;98966.35946782363;;;13.629739833676659;60.99473563744564
71642;BME280;60657;50.122;14.468;2023-05-19T05:54:08;98968.01510929826;;;13.635080491340503;60.535057602807655
71642;BME280;60657;50.122;14.468;2023-05-19T05:57:25;98967.2439451998;;;13.33066300450141;61.49256122682536
71642;BME280;60657;50.122;14.468;2023-05-19T06:00:40;98963.82281035245;;;13.741893644617377;60.90127412832837
71642;BME280;60657;50.122;14.468;2023-05-19T06:03:55;98976.27000345862;;;13.91813534752422;60.496910048065914
71642;BME280;60657;50.122;14.468;2023-05-19T06:07:10;98974.68318087493;;;13.701838712138553;60.26039520866712
71642;BME280;60657;50.122;14.468;2023-05-19T06:10:24;98963.01695065266;;;13.675135423819334;60.20698863202868
71642;BME280;60657;50.122;14.468;2023-05-19T06:13:39;98970.47340480873;;;13.864728770885783;60.580834668497744
71642;BME280;60657;50.122;14.468;2023-05-19T06:16:54;98963.69753161771;;;14.134431982909895;60.75822079804685
71642;BME280;60657;50.122;14.468;2023-05-19T06:20:09;98951.05139742515;;;14.369420920119019;59.566109712367435
71642;BME280;60657;50.122;14.468;2023-05-19T06:23:25;98955.89639075406;;;14.636453803311205;58.82413977264058
71642;BME280;60657;50.122;14.468;2023-05-19T06:26:40;98969.37484503421;;;14.398794537270163;58.173723964293885
71642;BME280;60657;50.122;14.468;2023-05-19T06:29:54;98970.98071528181;;;14.64179446097505;58.269092851148244
71642;BME280;60657;50.122;14.468;2023-05-19T06:33:09;98964.17058716713;;;14.831387808041505;57.40695811398489
71642;BME280;60657;50.122;14.468;2023-05-19T06:36:24;98954.06802857904;;;14.946211947814142;57.523308155947205
71642;BME280;60657;50.122;14.468;2023-05-19T06:39:39;98955.58275953107;;;15.093080033569848;56.33310444800488
71642;BME280;60657;50.122;14.468;2023-05-19T06:42:53;98962.33379293494;;;15.221255817502097;56.35217822537575
71642;BME280;60657;50.122;14.468;2023-05-19T06:46:08;98965.30658540243;;;15.56839856565194;54.990310521095594
71642;BME280;60657;50.122;14.468;2023-05-19T06:49:23;98963.67040750448;;;15.541695277332721;55.50148775463493
71642;BME280;60657;50.122;14.468;2023-05-19T06:52:37;98969.3516057111;;;15.699244678416115;55.01701380941482
71642;BME280;60657;50.122;14.468;2023-05-19T06:55:53;98963.25161367511;;;15.808728160524907;54.24834058136874
71642;BME280;60657;50.122;14.468;2023-05-19T06:59:07;98981.61390016021;;;15.963607232776376;54.07476920729381
71642;BME280;60657;50.122;14.468;2023-05-19T07:02:22;98971.84719705688;;;15.792706187533376;55.13908598458839
71642;BME280;60657;50.122;14.468;2023-05-19T07:05:37;98961.30097645709;;;16.28938735027085;53.805828946364535
71642;BME280;60657;50.122;14.468;2023-05-19T07:08:51;98965.97644696728;;;16.567101548790724;53.618905928130005
71642;BME280;60657;50.122;14.468;2023-05-19T07:12:06;98970.49882290825;;;16.91157396810864;52.92271305409323
71642;BME280;60657;50.122;14.468;2023-05-19T07:15:21;98968.8577230914;;;16.874189364461735;52.28946364538033
71642;BME280;60657;50.122;14.468;2023-05-19T07:18:35;98986.95124705737;;;16.513694972152287;52.99519340810254
71642;BME280;60657;50.122;14.468;2023-05-19T07:21:50;98982.71889105698;;;16.53772793163958;52.94369420920119
71642;BME280;60657;50.122;14.468;2023-05-19T07:25:05;98977.63499495668;;;16.53772793163958;53.06767376211185
71642;BME280;60657;50.122;14.468;2023-05-19T07:28:20;98967.56162985157;;;16.548409246967267;52.07583733882658
71642;BME280;60657;50.122;14.468;2023-05-19T07:31:35;98967.06704440051;;;16.90356298161288;52.247501335164415
71642;BME280;60657;50.122;14.468;2023-05-19T07:34:50;98966.77806380836;;;17.151903562981616;51.66575112535286
71642;BME280;60657;50.122;14.468;2023-05-19T07:38:05;98963.43143284964;;;17.09048599984741;51.37582970931563
71642;BME280;60657;50.122;14.468;2023-05-19T07:41:20;98968.7292299571;;;16.975661860074766;50.81696803234912
71642;BME280;60657;50.122;14.468;2023-05-19T07:44:34;98982.92351391604;;;16.828793774319067;50.034943160143435
71642;BME280;60657;50.122;14.468;2023-05-19T07:47:49;98960.19823965235;;;17.06378271152819;50.883726253147174
71642;BME280;60657;50.122;14.468;2023-05-19T07:51:04;98969.08553375796;;;17.298771648737315;49.59243152513924
71642;BME280;60657;50.122;14.468;2023-05-19T07:54:25;98968.46277317939;;;17.111848630502784;50.70061799038682
71642;BME280;60657;50.122;14.468;2023-05-19T07:57:39;98964.14698618016;;;17.066453040360116;50.977187762264435
71642;BME280;60657;50.122;14.468;2023-05-19T08:00:55;98955.77659510096;;;17.501716639963377;50.204699778744185
71642;BME280;60657;50.122;14.468;2023-05-19T08:04:10;98951.653845846;;;17.998397802700843;48.707408255130844
71642;BME280;60657;50.122;14.468;2023-05-19T08:07:25;98955.83386330631;;;17.83817807278553;47.95590142671855
71642;BME280;60657;50.122;14.468;2023-05-19T08:10:40;98949.75964745591;;;18.292133974212256;48.39841306172274
71642;BME280;60657;50.122;14.468;2023-05-19T08:13:54;98958.43941918467;;;17.92362859540703;48.049362935835816
71642;BME280;60657;50.122;14.468;2023-05-19T08:17:09;98952.90762485641;;;17.953002212558175;47.831921873807886
71642;BME280;60657;50.122;14.468;2023-05-19T08:20:24;98956.45993348006;;;18.193331807431143;47.11856260013733
71642;BME280;60657;50.122;14.468;2023-05-19T08:23:38;98945.09435839276;;;18.393606469825286;47.40657663843748
71642;BME280;60657;50.122;14.468;2023-05-19T08:26:54;98953.25629221188;;;18.134584573128862;46.58258945601587
71642;BME280;60657;50.122;14.468;2023-05-19T08:30:09;98941.60479621426;;;18.022430762188144;48.215304798962386
71642;BME280;60657;50.122;14.468;2023-05-19T08:33:25;98932.61463926133;;;18.22003509575036;48.19432364385443
71642;BME280;60657;50.122;14.468;2023-05-19T08:36:40;98933.53705570291;;;18.260090028229193;48.17143511100939
71642;BME280;60657;50.122;14.468;2023-05-19T08:39:55;98926.49215072334;;;18.471046005951017;47.46952010376135
71642;BME280;60657;50.122;14.468;2023-05-19T08:43:09;98918.1705961984;;;18.81551842526894;46.81910429541466
71642;BME280;60657;50.122;14.468;2023-05-19T08:46:25;98922.44881127588;;;19.133287556267646;46.273594262607766
71642;BME280;60657;50.122;14.468;2023-05-19T08:49:42;98915.67089003992;;;19.237430380712595;45.777676050965134
71642;BME280;60657;50.122;14.468;2023-05-19T08:53:00;98918.84258211926;;;19.200045777065696;45.50873579003586
71642;BME280;60657;50.122;14.468;2023-05-19T08:56:23;98908.55119356414;;;19.621957732509344;46.16487373159381
71642;BME280;60657;50.122;14.468;2023-05-19T08:59:39;98909.78111612273;;;19.942397192339968;43.910353246356905
71642;BME280;60657;50.122;14.468;2023-05-19T09:02:54;98910.91989393959;;;19.645990691996644;45.27794308384833
71642;BME280;60657;50.122;14.468;2023-05-19T09:06:09;98907.50378660166;;;19.985122453650717;44.34332799267567
71642;BME280;60657;50.122;14.468;2023-05-19T09:09:27;98895.58454461927;;;20.332265201800567;45.070038910505836
71642;BME280;60657;50.122;14.468;2023-05-19T09:12:43;98900.81531169699;;;20.34828717479209;43.52315556572824
71642;BME280;60657;50.122;14.468;2023-05-19T09:16:00;98894.86770407701;;;19.67536430914778;44.360494392309455
71642;BME280;60657;50.122;14.468;2023-05-19T09:19:16;98891.21735939097;;;20.001144426642256;44.24605172808423
71642;BME280;60657;50.122;14.468;2023-05-19T09:22:33;98888.07254803552;;;19.902342259861143;44.61989776455329
71642;BME280;60657;50.122;14.468;2023-05-19T09:25:54;98880.93074829776;;;20.441748683909367;43.64713511863889
71642;BME280;60657;50.122;14.468;2023-05-19T09:29:10;98884.4213781548;;;20.417715724422067;43.83405813687342
71642;BME280;60657;50.122;14.468;2023-05-19T09:32:26;98882.49731050823;;;20.521858548867016;43.62996871900511
71642;BME280;60657;50.122;14.468;2023-05-19T09:35:45;98871.477389982;;;21.00251773861295;44.3089951934081
71642;BME280;60657;50.122;14.468;2023-05-19T09:39:00;98881.60264760155;;;20.997177080949115;42.91088731212329
71642;BME280;60657;50.122;14.468;2023-05-19T09:42:15;98868.9460810973;;;21.04257267109179;43.62806134126802
71642;BME280;60657;50.122;14.468;2023-05-19T09:45:29;98881.48793607233;;;20.767528801403827;43.181734950789654
71642;BME280;60657;50.122;14.468;2023-05-19T09:48:44;98883.16077103344;;;20.43373769741359;43.956130312046994
71642;BME280;60657;50.122;14.468;2023-05-19T09:52:01;98866.99113061164;;;20.879682612344553;44.78583962767986
71642;BME280;60657;50.122;14.468;2023-05-19T09:55:17;98856.38811201247;;;21.53925383382925;43.50789654383154
71642;BME280;60657;50.122;14.468;2023-05-19T09:58:32;98853.74203554995;;;21.24551766231785;43.34576943617914
71642;BME280;60657;50.122;14.468;2023-05-19T10:01:47;98852.87331999488;;;20.56191348134584;43.16838330663005
71642;BME280;60657;50.122;14.468;2023-05-19T10:05:03;98852.00546647413;;;20.77553978789959;43.69291218432898
71642;BME280;60657;50.122;14.468;2023-05-19T10:08:19;98850.12911872302;;;21.168078126192114;43.919890135042344
71642;BME280;60657;50.122;14.468;2023-05-19T10:11:37;98846.76993058455;;;21.36835278858625;42.98146028839551
71642;BME280;60657;50.122;14.468;2023-05-19T10:14:53;98853.24974305942;;;20.572594796673528;44.50354772259098
71642;BME280;60657;50.122;14.468;2023-05-19T10:18:08;98857.02353417281;;;20.52452887769894;44.631342030975816
71642;BME280;60657;50.122;14.468;2023-05-19T10:21:25;98848.00209506691;;;20.69008926527809;44.24032959487297
71642;BME280;60657;50.122;14.468;2023-05-19T10:24:40;98851.64094973938;;;20.64736400396734;44.54169527733272
71642;BME280;60657;50.122;14.468;2023-05-19T10:27:56;98848.65373542531;;;20.50583657587549;44.98992904554818
71642;BME280;60657;50.122;14.468;2023-05-19T10:31:18;98855.26077820649;;;19.88097962920577;46.54062714579995
71642;BME280;60657;50.122;14.468;2023-05-19T10:34:47;98840.60055911358;;;20.636682688639652;45.44579232471199
71642;BME280;60657;50.122;14.468;2023-05-19T10:38:26;98840.00673000958;;;20.60196841382468;45.840619516289
71642;BME280;60657;50.122;14.468;2023-05-19T10:41:52;98837.54779229991;;;20.869001297016865;45.55832761120012
71642;BME280;60657;50.122;14.468;2023-05-19T10:45:18;98844.83257329004;;;20.67139696345464;45.64034485389487
71642;BME280;60657;50.122;14.468;2023-05-19T10:48:37;98830.85619675089;;;20.40703440909438;46.37468528267338
71642;BME280;60657;50.122;14.468;2023-05-19T10:51:57;98838.76668334365;;;20.92774853131914;46.552071412222475
71642;BME280;60657;50.122;14.468;2023-05-19T10:55:12;98836.72031227728;;;20.636682688639652;46.300297550926985
71642;BME280;60657;50.122;14.468;2023-05-19T10:58:59;98837.29298496817;;;20.244144350347142;47.11474784466316
71642;BME280;60657;50.122;14.468;2023-05-19T11:02:35;98840.61627187271;;;20.711451895933465;46.57877470054169
71642;BME280;60657;50.122;14.468;2023-05-19T11:05:53;98827.38730261342;;;21.160067139696352;46.048523689631494
71642;BME280;60657;50.122;14.468;2023-05-19T11:09:30;98818.03265262612;;;21.218814373998626;45.22072175173572
71642;BME280;60657;50.122;14.468;2023-05-19T11:12:45;98829.02430581285;;;21.117341878385602;45.82154573891813
71642;BME280;60657;50.122;14.468;2023-05-19T11:16:05;98833.05819687202;;;20.650034332799265;46.47577630273899
71642;BME280;60657;50.122;14.468;2023-05-19T11:19:24;98840.48138369888;;;19.963759822995343;48.360265506981
71642;BME280;60657;50.122;14.468;2023-05-19T11:22:40;98837.91238995691;;;19.90501258869307;48.486152437628746
71642;BME280;60657;50.122;14.468;2023-05-19T11:25:56;98828.36779817456;;;20.214770733196005;48.066529335469596
71642;BME280;60657;50.122;14.468;2023-05-19T11:29:10;98837.29504943817;;;19.702067597467007;48.53574425879301
71642;BME280;60657;50.122;14.468;2023-05-19T11:32:27;98822.70739329854;;;20.241474021515216;48.34882124055848
71642;BME280;60657;50.122;14.468;2023-05-19T11:35:44;98827.45264980652;;;20.45777065690089;48.198138399328606
71642;BME280;60657;50.122;14.468;2023-05-19T11:39:00;98816.08213602267;;;20.580605783169304;48.16571297779812
71642;BME280;60657;50.122;14.468;2023-05-19T11:42:18;98826.53214451025;;;20.294880598153654;48.48424505989166
71642;BME280;60657;50.122;14.468;2023-05-19T11:45:33;98836.69930153471;;;19.939726863508042;48.78179598687724
71642;BME280;60657;50.122;14.468;2023-05-19T11:48:48;98825.9292587915;;;20.34561684596018;48.570077058060576
71642;BME280;60657;50.122;14.468;2023-05-19T11:52:03;98816.17731223225;;;20.58594644083314;48.217212176699476